MRIT2: Lake Meredith

                                SHEF ID:       MRIT2     Lake Meredith
STATION TYPE: RESERVOIR
Flood Pool: Bottom = 2941.30, Top = 2965.00

PRECIP ELEVATION STORAGE INFLOW RELEASE WIND-DIRWIND-SPEED
in ft ac-ft cfs cfs deg mph
Ccp-Rev Ccp-Rev Ccp-Rev Rev-Regi Rev-Regi Ccp-Rev Ccp-Rev
(America/Chicago)
10/17 00:00 ---- 2891.69 262678 0 0 96.00 0.00
10/17 01:00 ---- 2891.70 262756 0 0 279.00 0.00
10/17 02:00 ---- 2891.70 262756 0 0 251.00 1.00
10/17 03:00 ---- 2891.70 262756 0 0 212.00 4.00
10/17 04:00 ---- 2891.68 262599 0 0 235.00 4.00
10/17 05:00 ---- 2891.68 262599 0 0 233.00 4.00
10/17 06:00 ---- 2891.66 262443 0 0 229.00 2.00
10/17 07:00 ---- 2891.69 262678 0 0 252.00 2.00
10/17 08:00 ---- 2891.68 262599 0 0 240.00 3.00
10/17 09:00 ---- 2891.68 262599 0 0 ---- ----
10/17 10:00 ---- 2891.68 262599 0 0 ---- ----
10/17 11:00 ---- 2891.69 262678 0 0 ---- ----
10/17 12:00 ---- 2891.68 262599 0 0 ---- ----
10/17 13:00 ---- 2891.68 262599 0 0 ---- ----
10/17 14:00 ---- 2891.67 262521 0 0 ---- ----
10/17 15:00 ---- 2891.68 262599 253 0 ---- ----
10/17 16:00 ---- 2891.67 262521 253 0 ---- ----
10/17 17:00 ---- 2891.69 262678 253 0 ---- ----
10/17 18:00 ---- 2891.70 262756 379 0 ---- ----
10/17 19:00 ---- 2891.69 262678 379 0 ---- ----
10/17 20:00 ---- 2891.70 262756 126 0 ---- ----
10/17 21:00 ---- 2891.70 262756 126 0 ---- ----
10/17 22:00 ---- 2891.70 262756 126 0 ---- ----
10/17 23:00 ---- 2891.70 262756 ---- ---- ---- ----
Data processed at Wed 18Oct2023 04:47 GMT

Parsing this webpage?

Checkout our new Data API! CWMSDataAPI (CDA)

All information presented herein is the property of the government of the United States of America and may be revised or deleted at any time without prior notice. Dissemination of this information without the expressed written consent of the Public Affairs Office, Tulsa District U.S. Army Corps of Engineers is strictly prohibited. These data are gathered electronically and, as presented, have NOT undergone any form of quality control. These data are NOT guaranteed to be valid or correct.